createdAt,value
2022-12-08T00:02:59.219Z,15.97
2022-12-08T00:08:21.401Z,17.00
2022-12-08T00:13:24.811Z,18.20
2022-12-08T00:18:28.179Z,19.77
2022-12-08T00:23:32.953Z,18.73
2022-12-08T00:28:36.747Z,19.10
2022-12-08T00:33:40.279Z,23.73
2022-12-08T00:38:47.213Z,21.35
2022-12-08T00:43:50.545Z,23.45
2022-12-08T00:48:53.886Z,21.55
2022-12-08T00:53:58.563Z,25.47
2022-12-08T00:59:02.437Z,21.27
2022-12-08T01:04:06.301Z,21.77
2022-12-08T01:09:12.395Z,21.80
2022-12-08T01:14:15.729Z,19.92
2022-12-08T01:19:19.454Z,23.95
2022-12-08T01:24:24.247Z,22.35
2022-12-08T01:29:28.381Z,21.35
2022-12-08T01:34:31.793Z,23.83
2022-12-08T01:39:36.644Z,26.33
2022-12-08T01:45:05.412Z,25.73
2022-12-08T01:50:12.140Z,21.93
2022-12-08T01:55:21.081Z,21.25
2022-12-08T02:00:25.027Z,19.98
2022-12-08T02:05:30.684Z,17.90
2022-12-08T02:10:36.968Z,18.92
2022-12-08T02:15:48.467Z,20.20
2022-12-08T02:20:58.745Z,23.03
2022-12-08T02:26:40.971Z,21.58
2022-12-08T02:31:58.542Z,28.08
2022-12-08T02:37:10.535Z,22.37
2022-12-08T02:42:22.104Z,21.40
2022-12-08T02:47:28.156Z,23.63
2022-12-08T02:52:44.247Z,23.38
2022-12-08T02:58:15.176Z,23.95
2022-12-08T03:03:27.002Z,21.67
2022-12-08T03:08:35.521Z,23.20
2022-12-08T03:13:43.077Z,18.55
2022-12-08T03:18:49.838Z,19.73
2022-12-08T03:23:58.040Z,19.67
2022-12-08T03:29:01.680Z,20.38
2022-12-08T03:34:06.549Z,20.27
2022-12-08T03:39:11.429Z,22.67
2022-12-08T03:44:14.987Z,22.60
2022-12-08T03:49:18.323Z,22.73
2022-12-08T03:54:24.123Z,26.90
2022-12-08T03:59:27.742Z,26.25
2022-12-08T04:04:31.255Z,33.70
2022-12-08T04:09:35.913Z,29.42
2022-12-08T04:14:39.211Z,23.48
2022-12-08T04:19:42.544Z,21.45
2022-12-08T04:24:47.289Z,19.20
2022-12-08T04:29:50.641Z,18.15
2022-12-08T04:34:53.945Z,20.63
2022-12-08T04:39:58.628Z,22.88
2022-12-08T04:45:01.912Z,23.53
2022-12-08T04:50:06.559Z,22.33
2022-12-08T04:55:11.712Z,24.40
2022-12-08T05:00:15.974Z,23.10
2022-12-08T05:05:19.377Z,21.45
2022-12-08T05:10:24.408Z,22.42
2022-12-08T05:15:27.756Z,26.07
2022-12-08T05:20:31.049Z,28.38
2022-12-08T05:25:35.795Z,28.88
2022-12-08T05:30:39.143Z,24.23
2022-12-08T05:35:43.008Z,23.17
2022-12-08T05:40:47.710Z,24.95
2022-12-08T05:45:51.406Z,21.88
2022-12-08T05:50:54.968Z,24.57
2022-12-08T05:55:59.793Z,23.52
2022-12-08T06:01:04.329Z,23.98
2022-12-08T06:06:07.964Z,22.60
2022-12-08T06:11:19.128Z,24.42
2022-12-08T06:16:22.572Z,28.55
2022-12-08T06:21:26.227Z,28.95
2022-12-08T06:26:30.905Z,28.63
2022-12-08T06:31:34.309Z,33.63
2022-12-08T06:36:37.702Z,32.23
2022-12-08T06:41:56.189Z,36.13
2022-12-08T06:46:59.559Z,34.67
2022-12-08T06:52:02.861Z,31.85
2022-12-08T06:57:07.763Z,84.95
2022-12-08T07:02:11.632Z,75.43
2022-12-08T07:07:15.052Z,60.90
2022-12-08T07:12:19.708Z,55.17
2022-12-08T07:17:23.160Z,91.85
2022-12-08T07:22:26.613Z,75.68
2022-12-08T07:27:31.341Z,72.13
2022-12-08T07:32:34.966Z,49.43
2022-12-08T07:37:39.076Z,40.65
2022-12-08T07:42:43.751Z,41.05
2022-12-08T07:47:47.024Z,32.53
2022-12-08T07:52:50.486Z,37.60
2022-12-08T07:57:55.200Z,38.42
2022-12-08T08:02:58.840Z,36.97
2022-12-08T08:08:02.300Z,44.75
2022-12-08T08:13:07.206Z,32.77
2022-12-08T08:18:10.515Z,34.88
2022-12-08T08:23:13.789Z,29.47
2022-12-08T08:28:18.774Z,30.65
2022-12-08T08:33:22.276Z,28.77
2022-12-08T08:38:25.864Z,27.98
2022-12-08T08:43:36.016Z,26.43
2022-12-08T08:48:40.995Z,25.15
2022-12-08T08:53:44.843Z,24.53
2022-12-08T08:58:51.281Z,24.73
2022-12-08T09:03:55.288Z,24.73
2022-12-08T09:08:58.719Z,24.30
2022-12-08T09:14:03.387Z,22.40
2022-12-08T09:19:06.787Z,23.00
2022-12-08T09:24:15.653Z,20.70
2022-12-08T09:29:20.348Z,21.63
2022-12-08T09:34:23.673Z,21.58
2022-12-08T09:39:27.154Z,19.88
2022-12-08T09:44:50.667Z,18.90
2022-12-08T09:55:02.574Z,15.95
2022-12-08T10:00:09.261Z,21.73
2022-12-08T10:05:15.889Z,16.80
2022-12-08T10:10:30.422Z,18.33
2022-12-08T10:15:51.037Z,19.35
2022-12-08T10:20:55.584Z,20.25
2022-12-08T10:26:03.571Z,18.57
2022-12-08T10:31:08.347Z,16.70
2022-12-08T10:36:12.419Z,24.45
2022-12-08T10:41:18.221Z,16.98
2022-12-08T10:46:25.898Z,15.63
2022-12-08T10:51:31.146Z,17.52
2022-12-08T10:56:35.029Z,15.43
2022-12-08T11:01:41.534Z,17.37
2022-12-08T11:06:45.867Z,23.65
2022-12-08T11:11:51.435Z,19.05
2022-12-08T11:17:03.635Z,14.55
2022-12-08T11:22:22.936Z,16.52
2022-12-08T11:27:26.486Z,16.58
2022-12-08T11:32:31.339Z,17.07
2022-12-08T11:37:40.856Z,18.15
2022-12-08T12:03:22.953Z,21.30
2022-12-08T12:08:41.226Z,20.50
2022-12-08T12:14:02.329Z,19.90
2022-12-08T12:29:31.118Z,25.60
2022-12-08T12:34:38.970Z,20.92
2022-12-08T12:39:51.093Z,18.95
2022-12-08T12:45:13.321Z,23.30
2022-12-08T12:50:45.853Z,19.15
2022-12-08T12:55:56.428Z,22.70
2022-12-08T13:01:33.308Z,20.13
2022-12-08T13:06:41.856Z,22.30
2022-12-08T13:11:51.495Z,22.92
2022-12-08T13:16:56.769Z,21.17
2022-12-08T13:22:02.697Z,22.65
2022-12-08T13:27:35.580Z,22.60
2022-12-08T13:38:26.670Z,24.55
2022-12-08T13:43:47.693Z,23.83
2022-12-08T13:59:54.009Z,25.02
2022-12-08T14:10:27.804Z,30.67
2022-12-08T14:15:37.538Z,27.75
2022-12-08T14:21:18.785Z,30.00
2022-12-08T14:26:07.956Z,28.02
2022-12-08T14:31:14.235Z,34.60
2022-12-08T14:36:18.173Z,49.43
2022-12-08T14:41:27.200Z,47.07
2022-12-08T14:46:30.760Z,52.15
2022-12-08T14:51:35.238Z,42.53
2022-12-08T14:56:40.937Z,40.08
2022-12-08T15:01:45.266Z,45.17
2022-12-08T15:06:52.731Z,39.83
2022-12-08T15:12:03.351Z,44.20
2022-12-08T15:17:32.691Z,36.10
2022-12-08T15:22:36.193Z,39.30
2022-12-08T15:27:49.796Z,39.33
2022-12-08T15:32:56.041Z,45.13
2022-12-08T15:37:59.750Z,39.00
2022-12-08T15:43:06.881Z,42.33
2022-12-08T15:48:17.386Z,51.08
2022-12-08T15:53:21.115Z,46.03
2022-12-08T16:09:19.037Z,43.63
2022-12-08T16:15:23.436Z,52.92
2022-12-08T16:19:47.656Z,52.95
2022-12-08T16:24:50.988Z,57.22
2022-12-08T16:29:56.593Z,61.27
2022-12-08T16:35:00.008Z,62.78
2022-12-08T16:40:03.715Z,63.30
2022-12-08T16:45:11.605Z,60.40
2022-12-08T16:50:17.493Z,88.88
2022-12-08T16:55:21.305Z,52.90
2022-12-08T17:00:27.908Z,50.10
2022-12-08T17:05:31.743Z,57.22
2022-12-08T17:10:38.608Z,65.85
2022-12-08T17:15:43.396Z,53.67
2022-12-08T17:20:47.199Z,47.03
2022-12-08T17:25:59.448Z,44.30
2022-12-08T17:31:09.250Z,39.17
2022-12-08T17:36:14.803Z,45.58
2022-12-08T17:41:18.110Z,50.50
2022-12-08T17:46:23.698Z,62.37
2022-12-08T17:51:27.163Z,74.53
2022-12-08T17:56:30.437Z,92.53
2022-12-08T18:01:35.379Z,67.70
2022-12-08T18:06:39.864Z,64.63
2022-12-08T18:11:44.828Z,62.30
2022-12-08T18:16:49.998Z,60.85
2022-12-08T18:21:53.665Z,55.60
2022-12-08T18:26:57.818Z,55.20
2022-12-08T18:32:02.556Z,63.13
2022-12-08T18:37:07.418Z,76.15
2022-12-08T18:42:23.831Z,158.48
2022-12-08T18:47:28.510Z,72.90
2022-12-08T18:52:33.354Z,71.85
2022-12-08T18:57:39.199Z,80.17
2022-12-08T19:02:44.397Z,59.22
2022-12-08T19:07:47.879Z,56.73
2022-12-08T19:12:51.476Z,51.10
2022-12-08T19:17:56.454Z,50.38
2022-12-08T19:22:59.733Z,54.80
2022-12-08T19:28:03.066Z,51.88
2022-12-08T19:33:07.787Z,46.80
2022-12-08T19:38:11.419Z,54.58
2022-12-08T19:43:47.137Z,50.17
2022-12-08T19:48:51.988Z,47.85
2022-12-08T19:53:55.357Z,48.13
2022-12-08T19:58:58.823Z,50.17
2022-12-08T20:04:03.539Z,55.07
2022-12-08T20:09:07.387Z,58.03
2022-12-08T20:14:11.440Z,48.97
2022-12-08T20:19:16.233Z,42.55
2022-12-08T20:24:20.118Z,48.05
2022-12-08T20:29:23.442Z,47.93
2022-12-08T20:34:28.194Z,50.40
2022-12-08T20:39:31.511Z,38.93
2022-12-08T20:44:35.023Z,38.80
2022-12-08T20:49:39.997Z,40.83
2022-12-08T20:54:43.428Z,37.63
2022-12-08T20:59:46.919Z,38.83
2022-12-08T21:04:51.878Z,41.50
2022-12-08T21:09:55.361Z,39.47
2022-12-08T21:14:58.735Z,39.35
2022-12-08T21:20:03.618Z,41.78
2022-12-08T21:25:08.226Z,45.65
2022-12-08T21:30:12.726Z,44.88
2022-12-08T21:35:17.986Z,50.80
2022-12-08T21:40:21.375Z,47.58
2022-12-08T21:45:24.837Z,49.03
2022-12-08T21:50:29.688Z,47.55
2022-12-08T21:55:33.048Z,45.83
2022-12-08T22:00:36.597Z,52.55
2022-12-08T22:05:41.455Z,51.70
2022-12-08T22:10:48.930Z,54.43
2022-12-08T22:15:57.653Z,55.83
2022-12-08T22:21:02.567Z,61.78
2022-12-08T22:26:07.088Z,62.13
2022-12-08T22:31:12.051Z,57.78
2022-12-08T22:36:18.988Z,62.63
2022-12-08T22:41:23.838Z,62.92
2022-12-08T22:46:28.885Z,73.23
2022-12-08T22:51:36.364Z,66.00
2022-12-08T22:56:39.876Z,60.15
2022-12-08T23:01:43.346Z,55.33
2022-12-08T23:06:48.234Z,51.37
2022-12-08T23:11:51.586Z,52.38
2022-12-08T23:16:55.235Z,60.73
2022-12-08T23:22:00.349Z,52.78
2022-12-08T23:27:03.684Z,49.63
2022-12-08T23:32:07.512Z,51.45
2022-12-08T23:37:12.351Z,56.15
2022-12-08T23:42:15.882Z,51.85
2022-12-08T23:47:19.267Z,49.58
2022-12-08T23:52:24.054Z,55.33
2022-12-08T23:57:27.377Z,50.90
